Terminal Aerodrome Forecast
Issued by NWS Los Angeles, CA

Home | Current Version | Previous Version | Text Only | Print | Product List | Glossary On
Versions: 1 2 3 4 5 6 7 8 9 10 11 12 13 14 15 16 17 18 19 20 21 22
000
FTUS46 KLOX 260538
TAFSMX
TAF
KSMX 260538Z 2606/2706 30008KT P6SM SCT050 SCT150
     FM261000 VRB03KT 6SM BR SCT010 SCT150
     FM262100 30015KT P6SM SCT200
     FM270300 30008KT P6SM OVC100=

USA.gov is the U.S. government's official web portal to all federal, state and local government web resources and services.